Wedonia, Kentucky
Current Conditions -  °F | °C
As of 9:15 AM on Saturday 22 Nov 2014 (Local Time) from KFGX Reporting Station
Light Rain Light Rain  
Wind Chill: 33°   Ceiling: 8000
Heat Index: 40°   Visibility: 10mi
Dew Point: 25°   Wind: 10mph
Humidity: 56%   Direction: 200°SSW
Pressure: 30.33"   Gusts: NA
Location:  38.4934°N, 83.7754°W
Report Text: KFGX 221415Z AUTO 20009KT 10SM -RA SCT070 OVC080 04/M04 A3033 RMK AO2 T00431038
Loading
Personal Weather Stations






























Interactive Weather Map New forecast layout! Learn more

10-Day Weather Forecast

Advertisements
Track Severe Weather on mobile